Terminal Aerodrome Forecast
Issued by NWS

Home | Current Version | Previous Version | Text Only | Print | Product List | Glossary On
Versions: 1 2 3 4 5 6 7 8 9 10 11 12 13 14
884
FTUS45 KTFX 231720
TAFGTF
TAF
KGTF 231720Z 2318/2418 04010KT P6SM SCT040 BKN080
      TEMPO 2318/2322 BKN040
     FM240300 VRB05KT P6SM SKC
     FM241600 20009KT P6SM SKC=

USA.gov is the U.S. government's official web portal to all federal, state and local government web resources and services.